sensor_id;sensor_type;location;lat;lon;timestamp;temperature;humidity
48043;DHT22;33988;47.992;8.820;2023-07-22T00:01:13;21.70;50.40
48043;DHT22;33988;47.992;8.820;2023-07-22T00:03:40;21.70;50.50
48043;DHT22;33988;47.992;8.820;2023-07-22T00:06:09;21.70;50.60
48043;DHT22;33988;47.992;8.820;2023-07-22T00:08:38;21.60;50.60
48043;DHT22;33988;47.992;8.820;2023-07-22T00:11:07;21.60;50.60
48043;DHT22;33988;47.992;8.820;2023-07-22T00:13:39;21.50;50.60
48043;DHT22;33988;47.992;8.820;2023-07-22T00:16:06;21.50;50.70
48043;DHT22;33988;47.992;8.820;2023-07-22T00:18:34;21.50;50.70
48043;DHT22;33988;47.992;8.820;2023-07-22T00:21:01;21.50;50.70
48043;DHT22;33988;47.992;8.820;2023-07-22T00:23:28;21.40;50.70
48043;DHT22;33988;47.992;8.820;2023-07-22T00:25:56;21.40;50.70
48043;DHT22;33988;47.992;8.820;2023-07-22T00:28:26;21.40;50.80
48043;DHT22;33988;47.992;8.820;2023-07-22T00:30:53;21.40;50.90
48043;DHT22;33988;47.992;8.820;2023-07-22T00:33:24;21.30;50.90
48043;DHT22;33988;47.992;8.820;2023-07-22T00:35:51;21.30;51.00
48043;DHT22;33988;47.992;8.820;2023-07-22T00:38:19;21.30;51.00
48043;DHT22;33988;47.992;8.820;2023-07-22T00:40:46;21.30;51.00
48043;DHT22;33988;47.992;8.820;2023-07-22T00:43:13;21.30;51.00
48043;DHT22;33988;47.992;8.820;2023-07-22T00:45:40;21.30;51.10
48043;DHT22;33988;47.992;8.820;2023-07-22T00:48:07;21.30;51.70
48043;DHT22;33988;47.992;8.820;2023-07-22T00:50:40;21.30;51.10
48043;DHT22;33988;47.992;8.820;2023-07-22T00:53:09;21.30;51.10
48043;DHT22;33988;47.992;8.820;2023-07-22T00:55:39;21.30;51.10
48043;DHT22;33988;47.992;8.820;2023-07-22T00:58:07;21.30;51.20
48043;DHT22;33988;47.992;8.820;2023-07-22T01:00:36;21.30;51.10
48043;DHT22;33988;47.992;8.820;2023-07-22T01:03:06;21.30;51.20
48043;DHT22;33988;47.992;8.820;2023-07-22T01:05:37;21.20;51.10
48043;DHT22;33988;47.992;8.820;2023-07-22T01:08:05;21.20;51.00
48043;DHT22;33988;47.992;8.820;2023-07-22T01:10:35;21.20;51.10
48043;DHT22;33988;47.992;8.820;2023-07-22T01:13:03;21.20;51.30
48043;DHT22;33988;47.992;8.820;2023-07-22T01:15:31;21.20;51.10
48043;DHT22;33988;47.992;8.820;2023-07-22T01:18:00;21.20;51.10
48043;DHT22;33988;47.992;8.820;2023-07-22T01:20:29;21.20;51.20
48043;DHT22;33988;47.992;8.820;2023-07-22T01:23:01;21.10;51.20
48043;DHT22;33988;47.992;8.820;2023-07-22T01:25:30;21.10;51.20
48043;DHT22;33988;47.992;8.820;2023-07-22T01:27:57;21.10;51.30
48043;DHT22;33988;47.992;8.820;2023-07-22T01:30:25;21.10;51.30
48043;DHT22;33988;47.992;8.820;2023-07-22T01:32:58;21.10;51.30
48043;DHT22;33988;47.992;8.820;2023-07-22T01:35:28;21.10;51.30
48043;DHT22;33988;47.992;8.820;2023-07-22T01:37:55;21.10;51.40
48043;DHT22;33988;47.992;8.820;2023-07-22T01:40:24;21.10;51.40
48043;DHT22;33988;47.992;8.820;2023-07-22T01:42:51;21.10;51.40
48043;DHT22;33988;47.992;8.820;2023-07-22T01:45:19;21.10;51.50
48043;DHT22;33988;47.992;8.820;2023-07-22T01:47:46;21.00;51.40
48043;DHT22;33988;47.992;8.820;2023-07-22T01:50:15;21.00;51.50
48043;DHT22;33988;47.992;8.820;2023-07-22T01:52:45;21.00;51.50
48043;DHT22;33988;47.992;8.820;2023-07-22T01:55:13;21.00;52.30
48043;DHT22;33988;47.992;8.820;2023-07-22T01:57:42;21.00;51.60
48043;DHT22;33988;47.992;8.820;2023-07-22T02:00:10;21.00;51.60
48043;DHT22;33988;47.992;8.820;2023-07-22T02:02:38;21.00;51.60
48043;DHT22;33988;47.992;8.820;2023-07-22T02:05:08;21.00;51.70
48043;DHT22;33988;47.992;8.820;2023-07-22T02:07:37;21.00;51.60
48043;DHT22;33988;47.992;8.820;2023-07-22T02:10:05;21.00;51.70
48043;DHT22;33988;47.992;8.820;2023-07-22T02:12:32;21.00;51.70
48043;DHT22;33988;47.992;8.820;2023-07-22T02:14:59;21.00;51.70
48043;DHT22;33988;47.992;8.820;2023-07-22T02:17:26;21.00;51.70
48043;DHT22;33988;47.992;8.820;2023-07-22T02:19:59;20.90;51.60
48043;DHT22;33988;47.992;8.820;2023-07-22T02:22:29;20.90;51.60
48043;DHT22;33988;47.992;8.820;2023-07-22T02:24:56;20.90;51.50
48043;DHT22;33988;47.992;8.820;2023-07-22T02:27:22;20.90;51.50
48043;DHT22;33988;47.992;8.820;2023-07-22T02:29:53;20.90;51.50
48043;DHT22;33988;47.992;8.820;2023-07-22T02:32:22;20.90;51.50
48043;DHT22;33988;47.992;8.820;2023-07-22T02:34:48;20.80;51.50
48043;DHT22;33988;47.992;8.820;2023-07-22T02:37:15;20.80;51.50
48043;DHT22;33988;47.992;8.820;2023-07-22T02:39:45;20.80;51.50
48043;DHT22;33988;47.992;8.820;2023-07-22T02:42:12;20.80;51.40
48043;DHT22;33988;47.992;8.820;2023-07-22T02:44:38;20.80;51.40
48043;DHT22;33988;47.992;8.820;2023-07-22T02:47:08;20.80;51.50
48043;DHT22;33988;47.992;8.820;2023-07-22T02:49:35;20.70;51.40
48043;DHT22;33988;47.992;8.820;2023-07-22T02:52:02;20.70;51.40
48043;DHT22;33988;47.992;8.820;2023-07-22T02:54:30;20.70;51.40
48043;DHT22;33988;47.992;8.820;2023-07-22T02:56:56;20.70;51.30
48043;DHT22;33988;47.992;8.820;2023-07-22T02:59:29;20.70;51.30
48043;DHT22;33988;47.992;8.820;2023-07-22T03:01:58;20.70;51.30
48043;DHT22;33988;47.992;8.820;2023-07-22T03:04:25;20.70;51.30
48043;DHT22;33988;47.992;8.820;2023-07-22T03:06:52;20.60;51.20
48043;DHT22;33988;47.992;8.820;2023-07-22T03:09:19;20.60;51.30
48043;DHT22;33988;47.992;8.820;2023-07-22T03:11:48;20.60;51.30
48043;DHT22;33988;47.992;8.820;2023-07-22T03:14:14;20.60;51.30
48043;DHT22;33988;47.992;8.820;2023-07-22T03:16:41;20.60;51.30
48043;DHT22;33988;47.992;8.820;2023-07-22T03:19:11;20.50;51.30
48043;DHT22;33988;47.992;8.820;2023-07-22T03:21:38;20.50;51.30
48043;DHT22;33988;47.992;8.820;2023-07-22T03:24:05;20.50;51.30
48043;DHT22;33988;47.992;8.820;2023-07-22T03:26:35;20.50;51.30
48043;DHT22;33988;47.992;8.820;2023-07-22T03:29:04;20.50;51.40
48043;DHT22;33988;47.992;8.820;2023-07-22T03:31:33;20.40;51.40
48043;DHT22;33988;47.992;8.820;2023-07-22T03:34:00;20.40;51.40
48043;DHT22;33988;47.992;8.820;2023-07-22T03:36:27;20.40;51.40
48043;DHT22;33988;47.992;8.820;2023-07-22T03:39:00;20.40;51.40
48043;DHT22;33988;47.992;8.820;2023-07-22T03:41:30;20.30;52.00
48043;DHT22;33988;47.992;8.820;2023-07-22T03:43:59;20.40;51.40
48043;DHT22;33988;47.992;8.820;2023-07-22T03:46:26;20.30;51.40
48043;DHT22;33988;47.992;8.820;2023-07-22T03:48:55;20.30;51.50
48043;DHT22;33988;47.992;8.820;2023-07-22T03:51:22;20.20;51.40
48043;DHT22;33988;47.992;8.820;2023-07-22T03:53:49;20.20;51.50
48043;DHT22;33988;47.992;8.820;2023-07-22T03:56:16;20.20;51.50
48043;DHT22;33988;47.992;8.820;2023-07-22T03:58:43;20.20;51.50
48043;DHT22;33988;47.992;8.820;2023-07-22T04:01:12;20.20;51.40
48043;DHT22;33988;47.992;8.820;2023-07-22T04:03:40;20.20;51.50
48043;DHT22;33988;47.992;8.820;2023-07-22T04:06:07;20.20;51.50
48043;DHT22;33988;47.992;8.820;2023-07-22T04:08:34;20.10;51.40
48043;DHT22;33988;47.992;8.820;2023-07-22T04:11:03;20.10;51.40
48043;DHT22;33988;47.992;8.820;2023-07-22T04:13:30;20.10;51.50
48043;DHT22;33988;47.992;8.820;2023-07-22T04:16:00;20.10;51.50
48043;DHT22;33988;47.992;8.820;2023-07-22T04:18:27;20.10;51.50
48043;DHT22;33988;47.992;8.820;2023-07-22T04:21:00;20.10;51.50
48043;DHT22;33988;47.992;8.820;2023-07-22T04:23:30;20.00;51.50
48043;DHT22;33988;47.992;8.820;2023-07-22T04:26:02;20.00;51.50
48043;DHT22;33988;47.992;8.820;2023-07-22T04:28:34;20.00;51.60
48043;DHT22;33988;47.992;8.820;2023-07-22T04:31:04;20.00;51.70
48043;DHT22;33988;47.992;8.820;2023-07-22T04:33:33;20.10;51.80
48043;DHT22;33988;47.992;8.820;2023-07-22T04:36:00;20.00;51.70
48043;DHT22;33988;47.992;8.820;2023-07-22T04:38:27;20.00;51.70
48043;DHT22;33988;47.992;8.820;2023-07-22T04:40:54;20.00;51.80
48043;DHT22;33988;47.992;8.820;2023-07-22T04:43:21;20.00;51.80
48043;DHT22;33988;47.992;8.820;2023-07-22T04:45:49;20.00;51.80
48043;DHT22;33988;47.992;8.820;2023-07-22T04:48:16;20.00;51.80
48043;DHT22;33988;47.992;8.820;2023-07-22T04:50:47;20.00;51.80
48043;DHT22;33988;47.992;8.820;2023-07-22T04:53:14;20.00;51.80
48043;DHT22;33988;47.992;8.820;2023-07-22T04:55:42;20.00;51.70
48043;DHT22;33988;47.992;8.820;2023-07-22T04:58:09;20.00;51.60
48043;DHT22;33988;47.992;8.820;2023-07-22T05:00:40;20.00;51.60
48043;DHT22;33988;47.992;8.820;2023-07-22T05:03:11;20.00;51.70
48043;DHT22;33988;47.992;8.820;2023-07-22T05:05:38;20.00;51.70
48043;DHT22;33988;47.992;8.820;2023-07-22T05:08:05;20.00;51.70
48043;DHT22;33988;47.992;8.820;2023-07-22T05:10:36;20.00;51.80
48043;DHT22;33988;47.992;8.820;2023-07-22T05:13:04;20.00;51.80
48043;DHT22;33988;47.992;8.820;2023-07-22T05:15:31;20.00;51.90
48043;DHT22;33988;47.992;8.820;2023-07-22T05:18:01;20.00;52.00
48043;DHT22;33988;47.992;8.820;2023-07-22T05:20:28;20.00;52.10
48043;DHT22;33988;47.992;8.820;2023-07-22T05:22:55;20.00;52.10
48043;DHT22;33988;47.992;8.820;2023-07-22T05:25:23;20.00;52.10
48043;DHT22;33988;47.992;8.820;2023-07-22T05:27:50;20.00;52.10
48043;DHT22;33988;47.992;8.820;2023-07-22T05:30:19;20.00;52.10
48043;DHT22;33988;47.992;8.820;2023-07-22T05:33:00;20.00;52.10
48043;DHT22;33988;47.992;8.820;2023-07-22T05:35:27;19.70;52.10
48043;DHT22;33988;47.992;8.820;2023-07-22T05:37:54;20.00;52.10
48043;DHT22;33988;47.992;8.820;2023-07-22T05:40:21;20.00;52.10
48043;DHT22;33988;47.992;8.820;2023-07-22T05:42:51;20.00;52.20
48043;DHT22;33988;47.992;8.820;2023-07-22T05:45:18;20.00;52.30
48043;DHT22;33988;47.992;8.820;2023-07-22T05:47:45;20.00;52.30
48043;DHT22;33988;47.992;8.820;2023-07-22T05:50:12;20.10;52.40
48043;DHT22;33988;47.992;8.820;2023-07-22T05:52:41;20.10;52.50
48043;DHT22;33988;47.992;8.820;2023-07-22T05:55:10;20.20;52.50
48043;DHT22;33988;47.992;8.820;2023-07-22T05:57:37;20.20;53.20
48043;DHT22;33988;47.992;8.820;2023-07-22T06:00:04;20.30;52.60
48043;DHT22;33988;47.992;8.820;2023-07-22T06:02:35;20.30;52.60
48043;DHT22;33988;47.992;8.820;2023-07-22T06:05:04;20.30;52.60
48043;DHT22;33988;47.992;8.820;2023-07-22T06:07:34;20.40;52.70
48043;DHT22;33988;47.992;8.820;2023-07-22T06:10:01;20.40;52.70
48043;DHT22;33988;47.992;8.820;2023-07-22T06:12:28;20.40;52.60
48043;DHT22;33988;47.992;8.820;2023-07-22T06:15:00;20.50;52.70
48043;DHT22;33988;47.992;8.820;2023-07-22T06:17:30;20.50;52.60
48043;DHT22;33988;47.992;8.820;2023-07-22T06:19:59;20.60;52.70
48043;DHT22;33988;47.992;8.820;2023-07-22T06:22:26;20.60;52.70
48043;DHT22;33988;47.992;8.820;2023-07-22T06:24:55;20.70;52.80
48043;DHT22;33988;47.992;8.820;2023-07-22T06:27:22;20.70;52.80
48043;DHT22;33988;47.992;8.820;2023-07-22T06:29:52;20.80;52.90
48043;DHT22;33988;47.992;8.820;2023-07-22T06:32:19;20.80;52.90
48043;DHT22;33988;47.992;8.820;2023-07-22T06:34:46;20.90;52.90
48043;DHT22;33988;47.992;8.820;2023-07-22T06:37:13;20.90;52.90
48043;DHT22;33988;47.992;8.820;2023-07-22T06:39:40;21.00;52.90
48043;DHT22;33988;47.992;8.820;2023-07-22T06:42:07;21.10;52.90
48043;DHT22;33988;47.992;8.820;2023-07-22T06:44:36;21.10;52.90
48043;DHT22;33988;47.992;8.820;2023-07-22T06:47:05;21.20;53.00
48043;DHT22;33988;47.992;8.820;2023-07-22T06:49:32;21.30;53.00
48043;DHT22;33988;47.992;8.820;2023-07-22T06:52:04;21.30;53.00
48043;DHT22;33988;47.992;8.820;2023-07-22T06:54:32;21.40;53.00
48043;DHT22;33988;47.992;8.820;2023-07-22T06:57:01;21.50;53.10
48043;DHT22;33988;47.992;8.820;2023-07-22T06:59:28;21.60;53.10
48043;DHT22;33988;47.992;8.820;2023-07-22T07:01:58;21.60;53.10
48043;DHT22;33988;47.992;8.820;2023-07-22T07:04:25;21.70;53.30
48043;DHT22;33988;47.992;8.820;2023-07-22T07:06:54;21.90;53.50
48043;DHT22;33988;47.992;8.820;2023-07-22T07:09:23;22.00;53.60
48043;DHT22;33988;47.992;8.820;2023-07-22T07:11:52;22.10;53.60
48043;DHT22;33988;47.992;8.820;2023-07-22T07:14:24;22.30;53.70
48043;DHT22;33988;47.992;8.820;2023-07-22T07:16:54;22.50;53.70
48043;DHT22;33988;47.992;8.820;2023-07-22T07:19:20;22.60;53.80
48043;DHT22;33988;47.992;8.820;2023-07-22T07:21:47;22.80;53.80
48043;DHT22;33988;47.992;8.820;2023-07-22T07:24:15;23.00;53.60
48043;DHT22;33988;47.992;8.820;2023-07-22T07:26:42;23.30;53.60
48043;DHT22;33988;47.992;8.820;2023-07-22T07:29:11;23.40;53.50
48043;DHT22;33988;47.992;8.820;2023-07-22T07:31:54;23.60;53.20
48043;DHT22;33988;47.992;8.820;2023-07-22T07:34:24;23.80;52.80
48043;DHT22;33988;47.992;8.820;2023-07-22T07:36:50;24.10;52.50
48043;DHT22;33988;47.992;8.820;2023-07-22T07:39:20;24.30;52.10
48043;DHT22;33988;47.992;8.820;2023-07-22T07:41:52;24.50;51.60
48043;DHT22;33988;47.992;8.820;2023-07-22T07:44:19;24.60;51.20
48043;DHT22;33988;47.992;8.820;2023-07-22T07:46:46;24.80;51.00
48043;DHT22;33988;47.992;8.820;2023-07-22T07:49:12;24.90;50.60
48043;DHT22;33988;47.992;8.820;2023-07-22T07:51:40;25.10;50.40
48043;DHT22;33988;47.992;8.820;2023-07-22T07:54:08;25.20;50.20
48043;DHT22;33988;47.992;8.820;2023-07-22T07:56:35;25.30;49.80
48043;DHT22;33988;47.992;8.820;2023-07-22T07:59:04;25.40;49.20
48043;DHT22;33988;47.992;8.820;2023-07-22T08:01:35;25.50;49.20
48043;DHT22;33988;47.992;8.820;2023-07-22T08:04:08;25.60;48.90
48043;DHT22;33988;47.992;8.820;2023-07-22T08:06:35;25.70;48.40
48043;DHT22;33988;47.992;8.820;2023-07-22T08:09:09;25.80;48.60
48043;DHT22;33988;47.992;8.820;2023-07-22T08:11:38;25.90;48.50
48043;DHT22;33988;47.992;8.820;2023-07-22T08:14:05;26.00;48.10
48043;DHT22;33988;47.992;8.820;2023-07-22T08:16:34;26.00;47.80
48043;DHT22;33988;47.992;8.820;2023-07-22T08:19:02;26.10;47.40
48043;DHT22;33988;47.992;8.820;2023-07-22T08:21:29;26.20;47.10
48043;DHT22;33988;47.992;8.820;2023-07-22T08:23:56;26.20;46.90
48043;DHT22;33988;47.992;8.820;2023-07-22T08:26:25;26.30;46.30
48043;DHT22;33988;47.992;8.820;2023-07-22T08:28:57;26.40;46.00
48043;DHT22;33988;47.992;8.820;2023-07-22T08:31:27;26.40;45.60
48043;DHT22;33988;47.992;8.820;2023-07-22T08:33:56;26.50;45.50
48043;DHT22;33988;47.992;8.820;2023-07-22T08:36:23;26.50;45.30
48043;DHT22;33988;47.992;8.820;2023-07-22T08:38:53;26.60;45.30
48043;DHT22;33988;47.992;8.820;2023-07-22T08:41:23;26.60;45.20
48043;DHT22;33988;47.992;8.820;2023-07-22T08:43:54;26.70;45.10
48043;DHT22;33988;47.992;8.820;2023-07-22T08:46:22;26.80;45.00
48043;DHT22;33988;47.992;8.820;2023-07-22T08:48:54;26.80;44.80
48043;DHT22;33988;47.992;8.820;2023-07-22T08:51:24;26.90;44.50
48043;DHT22;33988;47.992;8.820;2023-07-22T08:53:58;27.00;44.50
48043;DHT22;33988;47.992;8.820;2023-07-22T08:56:36;27.00;43.80
48043;DHT22;33988;47.992;8.820;2023-07-22T08:59:05;27.00;43.90
48043;DHT22;33988;47.992;8.820;2023-07-22T09:01:34;27.10;43.40
48043;DHT22;33988;47.992;8.820;2023-07-22T09:04:03;27.10;42.90
48043;DHT22;33988;47.992;8.820;2023-07-22T09:06:31;27.10;42.50
48043;DHT22;33988;47.992;8.820;2023-07-22T09:08:58;27.20;42.60
48043;DHT22;33988;47.992;8.820;2023-07-22T09:11:26;27.20;42.30
48043;DHT22;33988;47.992;8.820;2023-07-22T09:13:53;27.20;42.40
48043;DHT22;33988;47.992;8.820;2023-07-22T09:16:23;27.20;42.60
48043;DHT22;33988;47.992;8.820;2023-07-22T09:18:59;27.20;42.40
48043;DHT22;33988;47.992;8.820;2023-07-22T09:21:26;27.20;42.80
48043;DHT22;33988;47.992;8.820;2023-07-22T09:23:54;27.20;42.80
48043;DHT22;33988;47.992;8.820;2023-07-22T09:26:21;27.30;42.40
48043;DHT22;33988;47.992;8.820;2023-07-22T09:28:58;27.30;41.90
48043;DHT22;33988;47.992;8.820;2023-07-22T09:31:26;27.30;42.50
48043;DHT22;33988;47.992;8.820;2023-07-22T09:33:55;27.40;42.70
48043;DHT22;33988;47.992;8.820;2023-07-22T09:39:23;27.40;41.90
48043;DHT22;33988;47.992;8.820;2023-07-22T09:41:50;27.50;41.60
48043;DHT22;33988;47.992;8.820;2023-07-22T09:44:22;27.60;41.40
48043;DHT22;33988;47.992;8.820;2023-07-22T09:46:49;27.70;41.30
48043;DHT22;33988;47.992;8.820;2023-07-22T09:49:18;27.70;41.40
48043;DHT22;33988;47.992;8.820;2023-07-22T09:51:45;27.80;41.10
48043;DHT22;33988;47.992;8.820;2023-07-22T09:54:27;27.90;41.20
48043;DHT22;33988;47.992;8.820;2023-07-22T09:56:57;28.00;41.30
48043;DHT22;33988;47.992;8.820;2023-07-22T09:59:29;28.00;41.20
48043;DHT22;33988;47.992;8.820;2023-07-22T10:01:57;28.10;40.90
48043;DHT22;33988;47.992;8.820;2023-07-22T10:04:33;28.10;41.50
48043;DHT22;33988;47.992;8.820;2023-07-22T10:07:01;28.20;40.50
48043;DHT22;33988;47.992;8.820;2023-07-22T10:09:35;28.30;40.60
48043;DHT22;33988;47.992;8.820;2023-07-22T10:12:04;28.40;40.30
48043;DHT22;33988;47.992;8.820;2023-07-22T10:14:32;28.40;40.20
48043;DHT22;33988;47.992;8.820;2023-07-22T10:17:04;28.50;40.30
48043;DHT22;33988;47.992;8.820;2023-07-22T10:19:35;28.50;40.30
48043;DHT22;33988;47.992;8.820;2023-07-22T10:22:03;28.50;40.20
48043;DHT22;33988;47.992;8.820;2023-07-22T10:24:33;28.60;40.20
48043;DHT22;33988;47.992;8.820;2023-07-22T10:27:04;28.70;39.80
48043;DHT22;33988;47.992;8.820;2023-07-22T10:29:33;28.70;39.70
48043;DHT22;33988;47.992;8.820;2023-07-22T10:32:00;28.70;39.80
48043;DHT22;33988;47.992;8.820;2023-07-22T10:34:27;28.80;40.10
48043;DHT22;33988;47.992;8.820;2023-07-22T10:36:56;28.80;39.70
48043;DHT22;33988;47.992;8.820;2023-07-22T10:39:28;28.80;39.30
48043;DHT22;33988;47.992;8.820;2023-07-22T10:42:04;28.90;39.00
48043;DHT22;33988;47.992;8.820;2023-07-22T10:44:38;28.90;38.70
48043;DHT22;33988;47.992;8.820;2023-07-22T10:47:06;29.00;39.20
48043;DHT22;33988;47.992;8.820;2023-07-22T10:49:47;29.00;39.20
48043;DHT22;33988;47.992;8.820;2023-07-22T10:52:39;29.00;39.20
48043;DHT22;33988;47.992;8.820;2023-07-22T10:55:18;29.00;38.20
48043;DHT22;33988;47.992;8.820;2023-07-22T10:57:50;29.00;38.10
48043;DHT22;33988;47.992;8.820;2023-07-22T11:00:25;29.00;38.20
48043;DHT22;33988;47.992;8.820;2023-07-22T11:03:12;29.00;38.70
48043;DHT22;33988;47.992;8.820;2023-07-22T11:05:50;29.00;38.50
48043;DHT22;33988;47.992;8.820;2023-07-22T11:08:39;28.90;38.60
48043;DHT22;33988;47.992;8.820;2023-07-22T11:11:07;28.90;37.70
48043;DHT22;33988;47.992;8.820;2023-07-22T11:13:40;28.90;37.90
48043;DHT22;33988;47.992;8.820;2023-07-22T11:16:11;28.90;37.80
48043;DHT22;33988;47.992;8.820;2023-07-22T11:18:39;28.80;38.00
48043;DHT22;33988;47.992;8.820;2023-07-22T11:21:13;28.50;38.70
48043;DHT22;33988;47.992;8.820;2023-07-22T11:23:40;28.70;38.30
48043;DHT22;33988;47.992;8.820;2023-07-22T11:26:07;28.70;38.50
48043;DHT22;33988;47.992;8.820;2023-07-22T11:28:36;28.70;38.40
48043;DHT22;33988;47.992;8.820;2023-07-22T11:31:07;28.70;38.50
48043;DHT22;33988;47.992;8.820;2023-07-22T11:33:43;28.40;39.10
48043;DHT22;33988;47.992;8.820;2023-07-22T11:36:13;28.60;38.20
48043;DHT22;33988;47.992;8.820;2023-07-22T11:38:40;28.60;38.00
48043;DHT22;33988;47.992;8.820;2023-07-22T11:41:09;28.60;37.60
48043;DHT22;33988;47.992;8.820;2023-07-22T11:43:38;28.60;37.70
48043;DHT22;33988;47.992;8.820;2023-07-22T11:46:09;28.60;38.00
48043;DHT22;33988;47.992;8.820;2023-07-22T11:48:36;28.60;37.80
48043;DHT22;33988;47.992;8.820;2023-07-22T11:51:03;28.70;38.00
48043;DHT22;33988;47.992;8.820;2023-07-22T11:53:32;28.70;37.90
48043;DHT22;33988;47.992;8.820;2023-07-22T11:55:59;28.70;38.00
48043;DHT22;33988;47.992;8.820;2023-07-22T11:58:30;28.70;37.80
48043;DHT22;33988;47.992;8.820;2023-07-22T12:01:05;28.70;37.60
48043;DHT22;33988;47.992;8.820;2023-07-22T12:03:33;28.50;38.40
48043;DHT22;33988;47.992;8.820;2023-07-22T12:06:06;28.80;37.60
48043;DHT22;33988;47.992;8.820;2023-07-22T12:08:34;28.80;37.10
48043;DHT22;33988;47.992;8.820;2023-07-22T12:11:03;28.90;37.20
48043;DHT22;33988;47.992;8.820;2023-07-22T12:13:36;28.80;37.30
48043;DHT22;33988;47.992;8.820;2023-07-22T12:16:06;28.90;37.30
48043;DHT22;33988;47.992;8.820;2023-07-22T12:18:46;28.90;37.50
48043;DHT22;33988;47.992;8.820;2023-07-22T12:21:14;28.80;36.60
48043;DHT22;33988;47.992;8.820;2023-07-22T12:23:45;28.90;37.00
48043;DHT22;33988;47.992;8.820;2023-07-22T12:26:14;29.00;37.10
48043;DHT22;33988;47.992;8.820;2023-07-22T12:28:41;29.00;36.80
48043;DHT22;33988;47.992;8.820;2023-07-22T12:31:11;29.10;36.50
48043;DHT22;33988;47.992;8.820;2023-07-22T12:33:41;29.10;36.40
48043;DHT22;33988;47.992;8.820;2023-07-22T12:36:08;29.10;36.20
48043;DHT22;33988;47.992;8.820;2023-07-22T12:38:35;29.10;35.80
48043;DHT22;33988;47.992;8.820;2023-07-22T12:41:06;29.20;36.00
48043;DHT22;33988;47.992;8.820;2023-07-22T12:43:35;29.20;36.40
48043;DHT22;33988;47.992;8.820;2023-07-22T12:46:02;29.20;36.10
48043;DHT22;33988;47.992;8.820;2023-07-22T12:48:29;29.30;36.50
48043;DHT22;33988;47.992;8.820;2023-07-22T12:50:57;29.30;36.80
48043;DHT22;33988;47.992;8.820;2023-07-22T12:53:24;29.30;36.00
48043;DHT22;33988;47.992;8.820;2023-07-22T12:55:59;29.40;36.30
48043;DHT22;33988;47.992;8.820;2023-07-22T12:58:26;29.40;35.50
48043;DHT22;33988;47.992;8.820;2023-07-22T13:00:53;29.40;35.80
48043;DHT22;33988;47.992;8.820;2023-07-22T13:03:20;29.40;35.70
48043;DHT22;33988;47.992;8.820;2023-07-22T13:05:47;29.40;35.80
48043;DHT22;33988;47.992;8.820;2023-07-22T13:08:21;29.50;35.90
48043;DHT22;33988;47.992;8.820;2023-07-22T13:10:50;29.50;35.80
48043;DHT22;33988;47.992;8.820;2023-07-22T13:13:19;29.50;35.70
48043;DHT22;33988;47.992;8.820;2023-07-22T13:15:51;29.50;35.50
48043;DHT22;33988;47.992;8.820;2023-07-22T13:18:18;29.50;35.30
48043;DHT22;33988;47.992;8.820;2023-07-22T13:20:45;29.60;34.90
48043;DHT22;33988;47.992;8.820;2023-07-22T13:23:12;29.60;34.80
48043;DHT22;33988;47.992;8.820;2023-07-22T13:25:38;29.50;34.70
48043;DHT22;33988;47.992;8.820;2023-07-22T13:28:08;29.50;34.40
48043;DHT22;33988;47.992;8.820;2023-07-22T13:30:35;29.50;34.20
48043;DHT22;33988;47.992;8.820;2023-07-22T13:33:04;29.50;34.20
48043;DHT22;33988;47.992;8.820;2023-07-22T13:35:31;29.50;34.40
48043;DHT22;33988;47.992;8.820;2023-07-22T13:37:58;29.50;34.80
48043;DHT22;33988;47.992;8.820;2023-07-22T13:40:25;29.40;34.80
48043;DHT22;33988;47.992;8.820;2023-07-22T13:42:52;29.40;34.90
48043;DHT22;33988;47.992;8.820;2023-07-22T13:45:21;29.50;35.20
48043;DHT22;33988;47.992;8.820;2023-07-22T13:47:48;29.40;35.40
48043;DHT22;33988;47.992;8.820;2023-07-22T13:50:15;29.40;35.40
48043;DHT22;33988;47.992;8.820;2023-07-22T13:52:42;29.40;35.30
48043;DHT22;33988;47.992;8.820;2023-07-22T13:55:11;29.40;35.60
48043;DHT22;33988;47.992;8.820;2023-07-22T13:57:38;29.50;35.50
48043;DHT22;33988;47.992;8.820;2023-07-22T14:00:05;29.50;35.00
48043;DHT22;33988;47.992;8.820;2023-07-22T14:02:38;29.50;34.50
48043;DHT22;33988;47.992;8.820;2023-07-22T14:05:05;29.50;34.20
48043;DHT22;33988;47.992;8.820;2023-07-22T14:07:33;29.50;34.00
48043;DHT22;33988;47.992;8.820;2023-07-22T14:10:01;29.60;34.10
48043;DHT22;33988;47.992;8.820;2023-07-22T14:12:33;29.60;34.10
48043;DHT22;33988;47.992;8.820;2023-07-22T14:15:02;29.70;34.20
48043;DHT22;33988;47.992;8.820;2023-07-22T14:17:33;29.70;34.00
48043;DHT22;33988;47.992;8.820;2023-07-22T14:20:00;29.70;34.30
48043;DHT22;33988;47.992;8.820;2023-07-22T14:22:27;29.70;33.90
48043;DHT22;33988;47.992;8.820;2023-07-22T14:24:54;29.70;34.10
48043;DHT22;33988;47.992;8.820;2023-07-22T14:27:20;29.70;34.30
48043;DHT22;33988;47.992;8.820;2023-07-22T14:29:47;29.70;34.60
48043;DHT22;33988;47.992;8.820;2023-07-22T14:32:14;29.70;34.60
48043;DHT22;33988;47.992;8.820;2023-07-22T14:34:45;29.70;34.50
48043;DHT22;33988;47.992;8.820;2023-07-22T14:37:12;29.70;34.30
48043;DHT22;33988;47.992;8.820;2023-07-22T14:39:42;29.70;33.90
48043;DHT22;33988;47.992;8.820;2023-07-22T14:42:09;29.60;33.70
48043;DHT22;33988;47.992;8.820;2023-07-22T14:44:40;29.60;33.40
48043;DHT22;33988;47.992;8.820;2023-07-22T14:47:07;29.60;33.50
48043;DHT22;33988;47.992;8.820;2023-07-22T14:49:37;29.50;33.50
48043;DHT22;33988;47.992;8.820;2023-07-22T14:52:04;29.50;33.60
48043;DHT22;33988;47.992;8.820;2023-07-22T14:54:33;29.50;33.60
48043;DHT22;33988;47.992;8.820;2023-07-22T14:57:00;29.50;33.50
48043;DHT22;33988;47.992;8.820;2023-07-22T14:59:27;29.50;33.50
48043;DHT22;33988;47.992;8.820;2023-07-22T15:01:54;29.50;33.60
48043;DHT22;33988;47.992;8.820;2023-07-22T15:04:26;29.50;33.70
48043;DHT22;33988;47.992;8.820;2023-07-22T15:06:53;29.40;33.60
48043;DHT22;33988;47.992;8.820;2023-07-22T15:09:25;29.40;33.50
48043;DHT22;33988;47.992;8.820;2023-07-22T15:11:52;29.40;33.60
48043;DHT22;33988;47.992;8.820;2023-07-22T15:14:21;29.40;33.40
48043;DHT22;33988;47.992;8.820;2023-07-22T15:16:48;29.40;33.20
48043;DHT22;33988;47.992;8.820;2023-07-22T15:19:15;29.40;32.90
48043;DHT22;33988;47.992;8.820;2023-07-22T15:21:42;29.40;33.30
48043;DHT22;33988;47.992;8.820;2023-07-22T15:24:09;29.40;33.40
48043;DHT22;33988;47.992;8.820;2023-07-22T15:26:36;29.30;33.50
48043;DHT22;33988;47.992;8.820;2023-07-22T15:29:03;29.30;33.60
48043;DHT22;33988;47.992;8.820;2023-07-22T15:31:32;29.30;33.50
48043;DHT22;33988;47.992;8.820;2023-07-22T15:34:01;29.30;33.20
48043;DHT22;33988;47.992;8.820;2023-07-22T15:36:28;29.30;33.10
48043;DHT22;33988;47.992;8.820;2023-07-22T15:38:55;29.30;33.30
48043;DHT22;33988;47.992;8.820;2023-07-22T15:41:22;29.30;33.70
48043;DHT22;33988;47.992;8.820;2023-07-22T15:43:49;29.20;33.80